sensor_id;sensor_type;location;lat;lon;timestamp;P1;durP1;ratioP1;P2;durP2;ratioP2
79533;SDS011;68982;52.160;6.736;2024-02-26T00:00:57;6.50;;;4.33;;
79533;SDS011;68982;52.160;6.736;2024-02-26T00:03:23;7.33;;;4.53;;
79533;SDS011;68982;52.160;6.736;2024-02-26T00:05:48;7.60;;;4.95;;
79533;SDS011;68982;52.160;6.736;2024-02-26T00:08:13;6.43;;;4.28;;
79533;SDS011;68982;52.160;6.736;2024-02-26T00:10:39;8.13;;;4.83;;
79533;SDS011;68982;52.160;6.736;2024-02-26T00:13:04;6.37;;;4.17;;
79533;SDS011;68982;52.160;6.736;2024-02-26T00:15:29;7.40;;;4.00;;
79533;SDS011;68982;52.160;6.736;2024-02-26T00:17:55;6.07;;;4.03;;
79533;SDS011;68982;52.160;6.736;2024-02-26T00:20:20;7.87;;;4.33;;
79533;SDS011;68982;52.160;6.736;2024-02-26T00:22:45;6.13;;;4.60;;
79533;SDS011;68982;52.160;6.736;2024-02-26T00:25:11;5.67;;;3.93;;
79533;SDS011;68982;52.160;6.736;2024-02-26T00:27:37;6.45;;;4.05;;
79533;SDS011;68982;52.160;6.736;2024-02-26T00:30:04;5.85;;;4.22;;
79533;SDS011;68982;52.160;6.736;2024-02-26T00:32:30;5.18;;;3.90;;
79533;SDS011;68982;52.160;6.736;2024-02-26T00:34:55;8.83;;;4.30;;
79533;SDS011;68982;52.160;6.736;2024-02-26T00:37:20;5.60;;;4.03;;
79533;SDS011;68982;52.160;6.736;2024-02-26T00:39:46;6.23;;;4.33;;
79533;SDS011;68982;52.160;6.736;2024-02-26T00:42:11;7.53;;;4.30;;
79533;SDS011;68982;52.160;6.736;2024-02-26T00:44:37;7.25;;;4.35;;
79533;SDS011;68982;52.160;6.736;2024-02-26T00:47:02;5.60;;;4.13;;
79533;SDS011;68982;52.160;6.736;2024-02-26T00:49:27;8.60;;;3.97;;
79533;SDS011;68982;52.160;6.736;2024-02-26T00:51:53;5.50;;;4.40;;
79533;SDS011;68982;52.160;6.736;2024-02-26T00:54:18;6.43;;;4.90;;
79533;SDS011;68982;52.160;6.736;2024-02-26T00:56:43;6.05;;;4.53;;
79533;SDS011;68982;52.160;6.736;2024-02-26T00:59:09;6.57;;;4.23;;
79533;SDS011;68982;52.160;6.736;2024-02-26T01:01:34;6.13;;;4.40;;
79533;SDS011;68982;52.160;6.736;2024-02-26T01:04:00;6.03;;;4.18;;
79533;SDS011;68982;52.160;6.736;2024-02-26T01:06:25;8.13;;;4.57;;
79533;SDS011;68982;52.160;6.736;2024-02-26T01:08:50;6.28;;;4.38;;
79533;SDS011;68982;52.160;6.736;2024-02-26T01:11:16;8.73;;;4.80;;
79533;SDS011;68982;52.160;6.736;2024-02-26T01:13:41;6.20;;;4.47;;
79533;SDS011;68982;52.160;6.736;2024-02-26T01:16:06;8.53;;;4.90;;
79533;SDS011;68982;52.160;6.736;2024-02-26T01:18:32;6.30;;;4.63;;
79533;SDS011;68982;52.160;6.736;2024-02-26T01:20:57;7.78;;;5.10;;
79533;SDS011;68982;52.160;6.736;2024-02-26T01:23:22;7.95;;;5.15;;
79533;SDS011;68982;52.160;6.736;2024-02-26T01:25:48;6.95;;;4.80;;
79533;SDS011;68982;52.160;6.736;2024-02-26T01:28:14;7.68;;;4.78;;
79533;SDS011;68982;52.160;6.736;2024-02-26T01:30:39;8.85;;;4.57;;
79533;SDS011;68982;52.160;6.736;2024-02-26T01:33:04;7.77;;;5.00;;
79533;SDS011;68982;52.160;6.736;2024-02-26T01:35:30;8.47;;;5.70;;
79533;SDS011;68982;52.160;6.736;2024-02-26T01:37:55;7.57;;;4.87;;
79533;SDS011;68982;52.160;6.736;2024-02-26T01:40:21;10.00;;;5.32;;
79533;SDS011;68982;52.160;6.736;2024-02-26T01:42:47;7.60;;;6.35;;
79533;SDS011;68982;52.160;6.736;2024-02-26T01:45:16;7.00;;;5.40;;
79533;SDS011;68982;52.160;6.736;2024-02-26T01:47:49;8.75;;;5.05;;
79533;SDS011;68982;52.160;6.736;2024-02-26T01:50:16;7.80;;;4.60;;
79533;SDS011;68982;52.160;6.736;2024-02-26T01:52:42;7.30;;;4.60;;
79533;SDS011;68982;52.160;6.736;2024-02-26T01:55:07;7.78;;;4.55;;
79533;SDS011;68982;52.160;6.736;2024-02-26T01:57:33;8.18;;;5.00;;
79533;SDS011;68982;52.160;6.736;2024-02-26T01:59:58;8.57;;;4.88;;
79533;SDS011;68982;52.160;6.736;2024-02-26T02:02:24;7.78;;;4.93;;
79533;SDS011;68982;52.160;6.736;2024-02-26T02:04:50;8.77;;;4.88;;
79533;SDS011;68982;52.160;6.736;2024-02-26T02:07:16;8.27;;;4.97;;
79533;SDS011;68982;52.160;6.736;2024-02-26T02:09:42;9.40;;;5.43;;
79533;SDS011;68982;52.160;6.736;2024-02-26T02:12:07;9.70;;;4.80;;
79533;SDS011;68982;52.160;6.736;2024-02-26T02:14:33;6.93;;;4.60;;
79533;SDS011;68982;52.160;6.736;2024-02-26T02:16:58;8.02;;;4.93;;
79533;SDS011;68982;52.160;6.736;2024-02-26T02:19:24;7.47;;;5.00;;
79533;SDS011;68982;52.160;6.736;2024-02-26T02:21:49;6.97;;;4.43;;
79533;SDS011;68982;52.160;6.736;2024-02-26T02:24:14;8.03;;;4.63;;
79533;SDS011;68982;52.160;6.736;2024-02-26T02:26:39;6.93;;;4.83;;
79533;SDS011;68982;52.160;6.736;2024-02-26T02:29:05;6.82;;;4.97;;
79533;SDS011;68982;52.160;6.736;2024-02-26T02:31:31;7.78;;;6.32;;
79533;SDS011;68982;52.160;6.736;2024-02-26T02:33:57;7.78;;;4.57;;
79533;SDS011;68982;52.160;6.736;2024-02-26T02:36:23;6.93;;;4.75;;
79533;SDS011;68982;52.160;6.736;2024-02-26T02:38:49;7.37;;;4.83;;
79533;SDS011;68982;52.160;6.736;2024-02-26T02:41:15;7.40;;;4.82;;
79533;SDS011;68982;52.160;6.736;2024-02-26T02:43:41;7.05;;;4.90;;
79533;SDS011;68982;52.160;6.736;2024-02-26T02:46:06;9.20;;;5.28;;
79533;SDS011;68982;52.160;6.736;2024-02-26T02:48:32;7.72;;;4.88;;
79533;SDS011;68982;52.160;6.736;2024-02-26T02:50:57;6.17;;;4.07;;
79533;SDS011;68982;52.160;6.736;2024-02-26T02:53:22;7.17;;;4.47;;
79533;SDS011;68982;52.160;6.736;2024-02-26T02:55:47;6.10;;;4.23;;
79533;SDS011;68982;52.160;6.736;2024-02-26T02:58:13;7.53;;;4.82;;
79533;SDS011;68982;52.160;6.736;2024-02-26T03:00:38;7.23;;;4.50;;
79533;SDS011;68982;52.160;6.736;2024-02-26T03:03:04;7.07;;;4.90;;
79533;SDS011;68982;52.160;6.736;2024-02-26T03:05:29;6.70;;;4.57;;
79533;SDS011;68982;52.160;6.736;2024-02-26T03:07:54;5.67;;;4.23;;
79533;SDS011;68982;52.160;6.736;2024-02-26T03:10:20;6.13;;;4.40;;
79533;SDS011;68982;52.160;6.736;2024-02-26T03:12:45;6.23;;;4.40;;
79533;SDS011;68982;52.160;6.736;2024-02-26T03:15:11;7.78;;;4.65;;
79533;SDS011;68982;52.160;6.736;2024-02-26T03:17:36;6.82;;;4.88;;
79533;SDS011;68982;52.160;6.736;2024-02-26T03:20:02;8.02;;;4.45;;
79533;SDS011;68982;52.160;6.736;2024-02-26T03:22:30;5.93;;;4.28;;
79533;SDS011;68982;52.160;6.736;2024-02-26T03:24:57;7.70;;;4.93;;
79533;SDS011;68982;52.160;6.736;2024-02-26T03:27:22;6.13;;;4.68;;
79533;SDS011;68982;52.160;6.736;2024-02-26T03:29:48;6.28;;;4.38;;
79533;SDS011;68982;52.160;6.736;2024-02-26T03:32:14;6.28;;;4.60;;
79533;SDS011;68982;52.160;6.736;2024-02-26T03:34:39;7.90;;;4.23;;
79533;SDS011;68982;52.160;6.736;2024-02-26T03:37:05;7.68;;;4.78;;
79533;SDS011;68982;52.160;6.736;2024-02-26T03:39:31;6.93;;;4.57;;
79533;SDS011;68982;52.160;6.736;2024-02-26T03:41:57;7.53;;;4.80;;
79533;SDS011;68982;52.160;6.736;2024-02-26T03:44:22;6.30;;;4.20;;
79533;SDS011;68982;52.160;6.736;2024-02-26T03:46:47;6.53;;;4.23;;
79533;SDS011;68982;52.160;6.736;2024-02-26T03:49:12;7.57;;;4.90;;
79533;SDS011;68982;52.160;6.736;2024-02-26T03:51:38;7.35;;;3.92;;
79533;SDS011;68982;52.160;6.736;2024-02-26T03:54:04;6.78;;;4.13;;
79533;SDS011;68982;52.160;6.736;2024-02-26T03:56:29;6.57;;;4.32;;
79533;SDS011;68982;52.160;6.736;2024-02-26T03:58:54;6.87;;;4.03;;
79533;SDS011;68982;52.160;6.736;2024-02-26T04:01:20;8.85;;;4.20;;
79533;SDS011;68982;52.160;6.736;2024-02-26T04:03:45;6.00;;;4.15;;
79533;SDS011;68982;52.160;6.736;2024-02-26T04:06:11;6.28;;;3.50;;
79533;SDS011;68982;52.160;6.736;2024-02-26T04:08:36;5.38;;;3.83;;
79533;SDS011;68982;52.160;6.736;2024-02-26T04:11:02;5.25;;;3.47;;
79533;SDS011;68982;52.160;6.736;2024-02-26T04:13:32;6.10;;;4.10;;
79533;SDS011;68982;52.160;6.736;2024-02-26T04:16:00;5.78;;;4.30;;
79533;SDS011;68982;52.160;6.736;2024-02-26T04:18:28;4.95;;;3.58;;
79533;SDS011;68982;52.160;6.736;2024-02-26T04:20:54;5.40;;;3.47;;
79533;SDS011;68982;52.160;6.736;2024-02-26T04:23:19;4.97;;;3.40;;
79533;SDS011;68982;52.160;6.736;2024-02-26T04:25:45;5.53;;;3.57;;
79533;SDS011;68982;52.160;6.736;2024-02-26T04:28:10;6.72;;;4.03;;
79533;SDS011;68982;52.160;6.736;2024-02-26T04:30:36;6.53;;;3.45;;
79533;SDS011;68982;52.160;6.736;2024-02-26T04:33:01;5.75;;;3.40;;
79533;SDS011;68982;52.160;6.736;2024-02-26T04:35:27;7.10;;;4.47;;
79533;SDS011;68982;52.160;6.736;2024-02-26T04:37:52;4.90;;;3.45;;
79533;SDS011;68982;52.160;6.736;2024-02-26T04:40:18;6.20;;;3.67;;
79533;SDS011;68982;52.160;6.736;2024-02-26T04:42:43;7.22;;;3.72;;
79533;SDS011;68982;52.160;6.736;2024-02-26T04:45:08;4.60;;;3.53;;
79533;SDS011;68982;52.160;6.736;2024-02-26T04:47:34;4.88;;;3.40;;
79533;SDS011;68982;52.160;6.736;2024-02-26T04:49:59;5.10;;;3.50;;
79533;SDS011;68982;52.160;6.736;2024-02-26T04:52:25;5.00;;;3.40;;
79533;SDS011;68982;52.160;6.736;2024-02-26T04:54:50;5.95;;;3.47;;
79533;SDS011;68982;52.160;6.736;2024-02-26T04:57:15;5.23;;;4.07;;
79533;SDS011;68982;52.160;6.736;2024-02-26T04:59:43;6.10;;;4.10;;
79533;SDS011;68982;52.160;6.736;2024-02-26T05:02:09;6.45;;;4.55;;
79533;SDS011;68982;52.160;6.736;2024-02-26T05:04:34;6.28;;;4.03;;
79533;SDS011;68982;52.160;6.736;2024-02-26T05:07:00;5.65;;;4.07;;
79533;SDS011;68982;52.160;6.736;2024-02-26T05:09:25;5.82;;;4.13;;
79533;SDS011;68982;52.160;6.736;2024-02-26T05:11:50;6.00;;;3.53;;
79533;SDS011;68982;52.160;6.736;2024-02-26T05:14:16;4.53;;;3.43;;
79533;SDS011;68982;52.160;6.736;2024-02-26T05:16:41;5.67;;;3.20;;
79533;SDS011;68982;52.160;6.736;2024-02-26T05:19:06;5.17;;;3.20;;
79533;SDS011;68982;52.160;6.736;2024-02-26T05:21:31;5.67;;;3.60;;
79533;SDS011;68982;52.160;6.736;2024-02-26T05:23:57;5.63;;;3.50;;
79533;SDS011;68982;52.160;6.736;2024-02-26T05:26:22;4.03;;;3.10;;
79533;SDS011;68982;52.160;6.736;2024-02-26T05:28:48;6.63;;;3.20;;
79533;SDS011;68982;52.160;6.736;2024-02-26T05:31:14;4.93;;;3.47;;
79533;SDS011;68982;52.160;6.736;2024-02-26T05:33:40;5.28;;;3.53;;
79533;SDS011;68982;52.160;6.736;2024-02-26T05:36:05;6.38;;;4.20;;
79533;SDS011;68982;52.160;6.736;2024-02-26T05:38:31;6.68;;;3.50;;
79533;SDS011;68982;52.160;6.736;2024-02-26T05:40:57;5.20;;;3.43;;
79533;SDS011;68982;52.160;6.736;2024-02-26T05:43:23;7.18;;;4.10;;
79533;SDS011;68982;52.160;6.736;2024-02-26T05:45:50;5.63;;;5.03;;
79533;SDS011;68982;52.160;6.736;2024-02-26T05:48:15;6.07;;;4.47;;
79533;SDS011;68982;52.160;6.736;2024-02-26T05:50:40;6.50;;;4.07;;
79533;SDS011;68982;52.160;6.736;2024-02-26T05:53:05;8.20;;;4.43;;
79533;SDS011;68982;52.160;6.736;2024-02-26T05:55:31;5.57;;;3.93;;
79533;SDS011;68982;52.160;6.736;2024-02-26T05:57:56;5.13;;;3.93;;
79533;SDS011;68982;52.160;6.736;2024-02-26T06:00:21;9.00;;;4.03;;
79533;SDS011;68982;52.160;6.736;2024-02-26T06:02:47;6.18;;;4.28;;
79533;SDS011;68982;52.160;6.736;2024-02-26T06:05:12;7.13;;;3.97;;
79533;SDS011;68982;52.160;6.736;2024-02-26T06:07:37;5.63;;;3.72;;
79533;SDS011;68982;52.160;6.736;2024-02-26T06:10:03;6.00;;;3.90;;
79533;SDS011;68982;52.160;6.736;2024-02-26T06:12:29;8.85;;;3.85;;
79533;SDS011;68982;52.160;6.736;2024-02-26T06:14:55;4.93;;;3.55;;
79533;SDS011;68982;52.160;6.736;2024-02-26T06:17:21;5.93;;;3.83;;
79533;SDS011;68982;52.160;6.736;2024-02-26T06:19:46;4.60;;;3.30;;
79533;SDS011;68982;52.160;6.736;2024-02-26T06:22:12;5.27;;;3.80;;
79533;SDS011;68982;52.160;6.736;2024-02-26T06:24:37;5.70;;;3.40;;
79533;SDS011;68982;52.160;6.736;2024-02-26T06:27:03;5.45;;;3.78;;
79533;SDS011;68982;52.160;6.736;2024-02-26T06:29:28;6.65;;;3.92;;
79533;SDS011;68982;52.160;6.736;2024-02-26T06:31:53;6.15;;;3.70;;
79533;SDS011;68982;52.160;6.736;2024-02-26T06:34:19;4.88;;;3.50;;
79533;SDS011;68982;52.160;6.736;2024-02-26T06:36:44;7.75;;;3.53;;
79533;SDS011;68982;52.160;6.736;2024-02-26T06:39:09;5.20;;;3.80;;
79533;SDS011;68982;52.160;6.736;2024-02-26T06:41:35;6.13;;;3.70;;
79533;SDS011;68982;52.160;6.736;2024-02-26T06:44:01;6.25;;;3.30;;
79533;SDS011;68982;52.160;6.736;2024-02-26T06:46:27;5.65;;;3.78;;
79533;SDS011;68982;52.160;6.736;2024-02-26T06:48:55;5.32;;;3.60;;
79533;SDS011;68982;52.160;6.736;2024-02-26T06:51:21;4.55;;;3.58;;
79533;SDS011;68982;52.160;6.736;2024-02-26T06:53:46;5.35;;;3.92;;
79533;SDS011;68982;52.160;6.736;2024-02-26T06:56:11;5.85;;;3.80;;
79533;SDS011;68982;52.160;6.736;2024-02-26T06:58:37;5.63;;;3.43;;
79533;SDS011;68982;52.160;6.736;2024-02-26T07:01:02;6.30;;;4.80;;
79533;SDS011;68982;52.160;6.736;2024-02-26T07:03:27;5.72;;;4.00;;
79533;SDS011;68982;52.160;6.736;2024-02-26T07:05:54;5.50;;;3.83;;
79533;SDS011;68982;52.160;6.736;2024-02-26T07:08:19;6.53;;;5.90;;
79533;SDS011;68982;52.160;6.736;2024-02-26T07:10:45;7.07;;;4.00;;
79533;SDS011;68982;52.160;6.736;2024-02-26T07:13:11;6.65;;;3.97;;
79533;SDS011;68982;52.160;6.736;2024-02-26T07:15:36;5.73;;;4.17;;
79533;SDS011;68982;52.160;6.736;2024-02-26T07:18:01;6.07;;;4.77;;
79533;SDS011;68982;52.160;6.736;2024-02-26T07:20:29;7.70;;;4.53;;
79533;SDS011;68982;52.160;6.736;2024-02-26T07:22:56;6.28;;;3.88;;
79533;SDS011;68982;52.160;6.736;2024-02-26T07:25:21;5.78;;;4.20;;
79533;SDS011;68982;52.160;6.736;2024-02-26T07:27:47;6.32;;;4.30;;
79533;SDS011;68982;52.160;6.736;2024-02-26T07:30:12;6.17;;;4.23;;
79533;SDS011;68982;52.160;6.736;2024-02-26T07:32:38;7.30;;;4.50;;
79533;SDS011;68982;52.160;6.736;2024-02-26T07:35:03;6.38;;;4.55;;
79533;SDS011;68982;52.160;6.736;2024-02-26T07:37:30;6.88;;;4.38;;
79533;SDS011;68982;52.160;6.736;2024-02-26T07:39:55;7.70;;;5.22;;
79533;SDS011;68982;52.160;6.736;2024-02-26T07:42:20;6.43;;;4.50;;
79533;SDS011;68982;52.160;6.736;2024-02-26T07:44:46;8.07;;;5.75;;
79533;SDS011;68982;52.160;6.736;2024-02-26T07:47:13;7.55;;;5.20;;
79533;SDS011;68982;52.160;6.736;2024-02-26T07:49:39;7.20;;;5.00;;
79533;SDS011;68982;52.160;6.736;2024-02-26T07:52:05;9.02;;;5.30;;
79533;SDS011;68982;52.160;6.736;2024-02-26T07:54:30;8.73;;;5.43;;
79533;SDS011;68982;52.160;6.736;2024-02-26T07:56:58;8.73;;;5.53;;
79533;SDS011;68982;52.160;6.736;2024-02-26T07:59:23;8.80;;;5.30;;
79533;SDS011;68982;52.160;6.736;2024-02-26T08:01:51;8.70;;;5.70;;
79533;SDS011;68982;52.160;6.736;2024-02-26T08:06:42;8.50;;;5.37;;
79533;SDS011;68982;52.160;6.736;2024-02-26T08:09:08;10.20;;;5.70;;
79533;SDS011;68982;52.160;6.736;2024-02-26T08:11:33;10.45;;;6.25;;
79533;SDS011;68982;52.160;6.736;2024-02-26T08:13:59;8.73;;;5.37;;
79533;SDS011;68982;52.160;6.736;2024-02-26T08:16:24;9.52;;;5.55;;
79533;SDS011;68982;52.160;6.736;2024-02-26T08:18:49;8.65;;;5.72;;
79533;SDS011;68982;52.160;6.736;2024-02-26T08:21:15;9.55;;;6.22;;
79533;SDS011;68982;52.160;6.736;2024-02-26T08:23:41;11.63;;;6.85;;
79533;SDS011;68982;52.160;6.736;2024-02-26T08:26:08;10.23;;;6.53;;
79533;SDS011;68982;52.160;6.736;2024-02-26T08:28:37;12.07;;;7.07;;
79533;SDS011;68982;52.160;6.736;2024-02-26T08:31:03;10.15;;;6.85;;
79533;SDS011;68982;52.160;6.736;2024-02-26T08:33:29;12.75;;;7.18;;
79533;SDS011;68982;52.160;6.736;2024-02-26T08:35:55;11.48;;;6.68;;
79533;SDS011;68982;52.160;6.736;2024-02-26T08:38:21;9.60;;;5.75;;
79533;SDS011;68982;52.160;6.736;2024-02-26T08:40:47;11.57;;;6.78;;
79533;SDS011;68982;52.160;6.736;2024-02-26T08:43:13;11.82;;;6.38;;
79533;SDS011;68982;52.160;6.736;2024-02-26T08:45:38;11.85;;;7.88;;
79533;SDS011;68982;52.160;6.736;2024-02-26T08:48:04;11.03;;;6.27;;
79533;SDS011;68982;52.160;6.736;2024-02-26T08:50:29;11.52;;;6.07;;
79533;SDS011;68982;52.160;6.736;2024-02-26T08:52:54;11.98;;;7.10;;
79533;SDS011;68982;52.160;6.736;2024-02-26T08:55:20;12.03;;;7.17;;
79533;SDS011;68982;52.160;6.736;2024-02-26T08:57:45;11.32;;;7.00;;
79533;SDS011;68982;52.160;6.736;2024-02-26T09:00:10;11.03;;;6.33;;
79533;SDS011;68982;52.160;6.736;2024-02-26T09:02:37;10.65;;;6.50;;
79533;SDS011;68982;52.160;6.736;2024-02-26T09:05:07;12.82;;;6.78;;
79533;SDS011;68982;52.160;6.736;2024-02-26T09:07:32;10.50;;;6.53;;
79533;SDS011;68982;52.160;6.736;2024-02-26T09:09:58;10.57;;;6.90;;
79533;SDS011;68982;52.160;6.736;2024-02-26T09:12:24;9.60;;;6.22;;
79533;SDS011;68982;52.160;6.736;2024-02-26T09:14:49;10.35;;;5.88;;
79533;SDS011;68982;52.160;6.736;2024-02-26T09:17:14;11.75;;;7.05;;
79533;SDS011;68982;52.160;6.736;2024-02-26T09:19:40;11.70;;;6.37;;
79533;SDS011;68982;52.160;6.736;2024-02-26T09:22:07;10.38;;;5.85;;
79533;SDS011;68982;52.160;6.736;2024-02-26T09:24:32;13.27;;;6.80;;
79533;SDS011;68982;52.160;6.736;2024-02-26T09:26:58;12.85;;;7.03;;
79533;SDS011;68982;52.160;6.736;2024-02-26T09:29:24;9.68;;;6.13;;
79533;SDS011;68982;52.160;6.736;2024-02-26T09:31:51;10.23;;;6.00;;
79533;SDS011;68982;52.160;6.736;2024-02-26T09:34:16;10.30;;;6.53;;
79533;SDS011;68982;52.160;6.736;2024-02-26T09:36:42;13.40;;;7.23;;
79533;SDS011;68982;52.160;6.736;2024-02-26T09:39:08;14.57;;;7.53;;
79533;SDS011;68982;52.160;6.736;2024-02-26T09:41:36;11.65;;;6.82;;
79533;SDS011;68982;52.160;6.736;2024-02-26T09:44:02;11.40;;;6.35;;
79533;SDS011;68982;52.160;6.736;2024-02-26T09:46:29;11.63;;;6.70;;
79533;SDS011;68982;52.160;6.736;2024-02-26T09:48:56;10.48;;;6.18;;
79533;SDS011;68982;52.160;6.736;2024-02-26T09:51:24;15.77;;;7.40;;
79533;SDS011;68982;52.160;6.736;2024-02-26T09:53:53;14.43;;;6.85;;
79533;SDS011;68982;52.160;6.736;2024-02-26T09:56:19;11.68;;;7.07;;
79533;SDS011;68982;52.160;6.736;2024-02-26T09:58:46;12.32;;;7.35;;
79533;SDS011;68982;52.160;6.736;2024-02-26T10:01:16;13.32;;;7.15;;
79533;SDS011;68982;52.160;6.736;2024-02-26T10:03:43;14.25;;;7.80;;
79533;SDS011;68982;52.160;6.736;2024-02-26T10:06:10;15.18;;;8.20;;
79533;SDS011;68982;52.160;6.736;2024-02-26T10:08:36;12.65;;;7.57;;
79533;SDS011;68982;52.160;6.736;2024-02-26T10:11:02;14.80;;;7.53;;
79533;SDS011;68982;52.160;6.736;2024-02-26T10:13:28;17.00;;;8.73;;
79533;SDS011;68982;52.160;6.736;2024-02-26T10:15:53;15.33;;;8.60;;
79533;SDS011;68982;52.160;6.736;2024-02-26T10:18:19;14.88;;;7.75;;
79533;SDS011;68982;52.160;6.736;2024-02-26T10:21:03;15.05;;;8.40;;
79533;SDS011;68982;52.160;6.736;2024-02-26T10:23:28;19.52;;;9.35;;
79533;SDS011;68982;52.160;6.736;2024-02-26T10:25:54;16.75;;;8.98;;
79533;SDS011;68982;52.160;6.736;2024-02-26T10:28:20;17.25;;;9.13;;
79533;SDS011;68982;52.160;6.736;2024-02-26T10:30:45;17.45;;;9.18;;
79533;SDS011;68982;52.160;6.736;2024-02-26T10:33:11;16.08;;;8.77;;
79533;SDS011;68982;52.160;6.736;2024-02-26T10:35:38;19.83;;;9.82;;
79533;SDS011;68982;52.160;6.736;2024-02-26T10:38:05;17.52;;;9.40;;
79533;SDS011;68982;52.160;6.736;2024-02-26T10:40:32;19.23;;;9.45;;
79533;SDS011;68982;52.160;6.736;2024-02-26T10:42:57;20.08;;;10.05;;
79533;SDS011;68982;52.160;6.736;2024-02-26T10:45:23;21.55;;;10.73;;
79533;SDS011;68982;52.160;6.736;2024-02-26T10:47:48;19.73;;;9.70;;
79533;SDS011;68982;52.160;6.736;2024-02-26T10:50:14;18.20;;;10.48;;
79533;SDS011;68982;52.160;6.736;2024-02-26T10:52:41;20.13;;;9.80;;
79533;SDS011;68982;52.160;6.736;2024-02-26T10:55:07;18.75;;;9.35;;
79533;SDS011;68982;52.160;6.736;2024-02-26T10:57:39;21.90;;;10.27;;
79533;SDS011;68982;52.160;6.736;2024-02-26T11:00:06;18.90;;;9.85;;
79533;SDS011;68982;52.160;6.736;2024-02-26T11:02:35;20.25;;;10.02;;
79533;SDS011;68982;52.160;6.736;2024-02-26T11:05:02;17.77;;;9.30;;
79533;SDS011;68982;52.160;6.736;2024-02-26T11:07:31;21.45;;;9.60;;
79533;SDS011;68982;52.160;6.736;2024-02-26T11:10:01;21.20;;;10.00;;
79533;SDS011;68982;52.160;6.736;2024-02-26T11:12:28;21.35;;;10.23;;
79533;SDS011;68982;52.160;6.736;2024-02-26T11:14:55;21.33;;;10.73;;
79533;SDS011;68982;52.160;6.736;2024-02-26T11:19:51;20.92;;;9.52;;
79533;SDS011;68982;52.160;6.736;2024-02-26T11:22:20;15.93;;;8.50;;
79533;SDS011;68982;52.160;6.736;2024-02-26T11:24:47;19.38;;;9.55;;
79533;SDS011;68982;52.160;6.736;2024-02-26T11:27:13;18.40;;;9.30;;
79533;SDS011;68982;52.160;6.736;2024-02-26T11:29:43;17.77;;;9.05;;
79533;SDS011;68982;52.160;6.736;2024-02-26T11:32:12;17.67;;;8.82;;
79533;SDS011;68982;52.160;6.736;2024-02-26T11:34:40;15.50;;;8.63;;
79533;SDS011;68982;52.160;6.736;2024-02-26T11:37:12;13.95;;;7.32;;
79533;SDS011;68982;52.160;6.736;2024-02-26T11:39:42;14.73;;;7.72;;
79533;SDS011;68982;52.160;6.736;2024-02-26T11:42:08;17.15;;;8.48;;
79533;SDS011;68982;52.160;6.736;2024-02-26T11:44:34;16.75;;;7.78;;
79533;SDS011;68982;52.160;6.736;2024-02-26T11:49:59;14.50;;;7.80;;
79533;SDS011;68982;52.160;6.736;2024-02-26T11:53:24;12.45;;;6.78;;
79533;SDS011;68982;52.160;6.736;2024-02-26T11:58:41;8.68;;;5.70;;
79533;SDS011;68982;52.160;6.736;2024-02-26T12:04:01;11.90;;;6.50;;
79533;SDS011;68982;52.160;6.736;2024-02-26T12:06:27;13.00;;;6.40;;
79533;SDS011;68982;52.160;6.736;2024-02-26T12:08:53;10.15;;;6.00;;
79533;SDS011;68982;52.160;6.736;2024-02-26T12:11:20;10.98;;;5.65;;
79533;SDS011;68982;52.160;6.736;2024-02-26T12:13:46;11.55;;;6.85;;
79533;SDS011;68982;52.160;6.736;2024-02-26T12:16:21;11.68;;;6.35;;
79533;SDS011;68982;52.160;6.736;2024-02-26T12:19:06;13.50;;;6.97;;
79533;SDS011;68982;52.160;6.736;2024-02-26T12:21:36;13.82;;;7.35;;
79533;SDS011;68982;52.160;6.736;2024-02-26T12:24:15;21.45;;;10.70;;
79533;SDS011;68982;52.160;6.736;2024-02-26T12:26:41;13.32;;;7.95;;
79533;SDS011;68982;52.160;6.736;2024-02-26T12:29:07;17.05;;;9.52;;
79533;SDS011;68982;52.160;6.736;2024-02-26T12:31:32;16.85;;;9.10;;
79533;SDS011;68982;52.160;6.736;2024-02-26T12:33:59;16.60;;;9.30;;
79533;SDS011;68982;52.160;6.736;2024-02-26T12:36:25;12.98;;;7.78;;
79533;SDS011;68982;52.160;6.736;2024-02-26T12:38:51;15.38;;;8.88;;
79533;SDS011;68982;52.160;6.736;2024-02-26T12:41:17;12.63;;;6.40;;
79533;SDS011;68982;52.160;6.736;2024-02-26T12:43:42;12.38;;;7.00;;
79533;SDS011;68982;52.160;6.736;2024-02-26T12:46:07;19.53;;;9.87;;
79533;SDS011;68982;52.160;6.736;2024-02-26T12:48:33;14.05;;;7.03;;
79533;SDS011;68982;52.160;6.736;2024-02-26T12:50:59;14.48;;;7.53;;
79533;SDS011;68982;52.160;6.736;2024-02-26T12:53:25;14.30;;;8.30;;
79533;SDS011;68982;52.160;6.736;2024-02-26T12:55:52;10.88;;;6.68;;
79533;SDS011;68982;52.160;6.736;2024-02-26T12:58:21;10.98;;;6.15;;
79533;SDS011;68982;52.160;6.736;2024-02-26T13:00:50;12.65;;;6.70;;
79533;SDS011;68982;52.160;6.736;2024-02-26T13:03:19;14.25;;;7.20;;
79533;SDS011;68982;52.160;6.736;2024-02-26T13:05:46;12.30;;;6.68;;
79533;SDS011;68982;52.160;6.736;2024-02-26T13:08:18;11.25;;;7.20;;
79533;SDS011;68982;52.160;6.736;2024-02-26T13:10:45;15.38;;;8.07;;
79533;SDS011;68982;52.160;6.736;2024-02-26T13:13:11;10.63;;;5.93;;
79533;SDS011;68982;52.160;6.736;2024-02-26T13:15:36;10.20;;;6.13;;
79533;SDS011;68982;52.160;6.736;2024-02-26T13:18:10;9.73;;;6.03;;
79533;SDS011;68982;52.160;6.736;2024-02-26T13:20:42;11.30;;;6.07;;
79533;SDS011;68982;52.160;6.736;2024-02-26T13:23:08;11.07;;;6.27;;
79533;SDS011;68982;52.160;6.736;2024-02-26T13:25:36;10.68;;;5.80;;
79533;SDS011;68982;52.160;6.736;2024-02-26T13:30:34;11.85;;;6.45;;
79533;SDS011;68982;52.160;6.736;2024-02-26T13:33:06;12.68;;;6.13;;
79533;SDS011;68982;52.160;6.736;2024-02-26T13:35:35;11.18;;;6.18;;
79533;SDS011;68982;52.160;6.736;2024-02-26T13:38:01;13.63;;;6.22;;
79533;SDS011;68982;52.160;6.736;2024-02-26T13:40:28;10.93;;;5.78;;
79533;SDS011;68982;52.160;6.736;2024-02-26T13:42:54;8.63;;;5.40;;
79533;SDS011;68982;52.160;6.736;2024-02-26T13:45:19;10.15;;;5.60;;
79533;SDS011;68982;52.160;6.736;2024-02-26T13:47:44;10.60;;;6.00;;
79533;SDS011;68982;52.160;6.736;2024-02-26T13:50:10;10.53;;;6.07;;
79533;SDS011;68982;52.160;6.736;2024-02-26T13:52:35;9.73;;;5.37;;
79533;SDS011;68982;52.160;6.736;2024-02-26T13:55:00;24.58;;;10.82;;
79533;SDS011;68982;52.160;6.736;2024-02-26T13:57:27;19.58;;;9.32;;
79533;SDS011;68982;52.160;6.736;2024-02-26T13:59:53;26.48;;;10.63;;
79533;SDS011;68982;52.160;6.736;2024-02-26T14:02:18;15.00;;;7.53;;
79533;SDS011;68982;52.160;6.736;2024-02-26T14:04:44;39.08;;;15.32;;
79533;SDS011;68982;52.160;6.736;2024-02-26T14:07:10;26.20;;;12.60;;
79533;SDS011;68982;52.160;6.736;2024-02-26T14:09:37;19.05;;;11.68;;
79533;SDS011;68982;52.160;6.736;2024-02-26T14:12:02;18.97;;;10.97;;
79533;SDS011;68982;52.160;6.736;2024-02-26T14:14:28;23.58;;;14.65;;
79533;SDS011;68982;52.160;6.736;2024-02-26T14:16:53;12.52;;;8.48;;
79533;SDS011;68982;52.160;6.736;2024-02-26T14:19:18;11.73;;;7.37;;
79533;SDS011;68982;52.160;6.736;2024-02-26T14:21:43;12.23;;;6.03;;
79533;SDS011;68982;52.160;6.736;2024-02-26T14:24:09;10.50;;;6.10;;
79533;SDS011;68982;52.160;6.736;2024-02-26T14:26:34;10.33;;;6.07;;
79533;SDS011;68982;52.160;6.736;2024-02-26T14:29:00;15.10;;;6.55;;
79533;SDS011;68982;52.160;6.736;2024-02-26T14:31:25;11.00;;;6.17;;
79533;SDS011;68982;52.160;6.736;2024-02-26T14:33:50;9.63;;;5.40;;
79533;SDS011;68982;52.160;6.736;2024-02-26T14:36:18;10.13;;;5.85;;
79533;SDS011;68982;52.160;6.736;2024-02-26T14:38:45;10.73;;;6.18;;
79533;SDS011;68982;52.160;6.736;2024-02-26T14:41:11;10.63;;;5.93;;
79533;SDS011;68982;52.160;6.736;2024-02-26T14:43:36;13.03;;;6.57;;
79533;SDS011;68982;52.160;6.736;2024-02-26T14:46:01;11.67;;;5.87;;
79533;SDS011;68982;52.160;6.736;2024-02-26T14:48:27;9.40;;;5.65;;
79533;SDS011;68982;52.160;6.736;2024-02-26T14:50:54;9.82;;;5.32;;